createdAt,value
2023-03-19T00:00:18.182Z,94783.00
2023-03-19T00:01:17.894Z,94781.00
2023-03-19T00:02:18.540Z,94781.00
2023-03-19T00:03:17.931Z,94779.00
2023-03-19T00:04:17.910Z,94777.00
2023-03-19T00:05:17.885Z,94775.00
2023-03-19T00:06:17.881Z,94773.00
2023-03-19T00:07:17.941Z,94771.00
2023-03-19T00:08:18.086Z,94775.00
2023-03-19T00:09:18.092Z,94777.00
2023-03-19T00:10:18.102Z,94781.00
2023-03-19T00:11:18.184Z,94781.00
2023-03-19T00:12:18.227Z,94779.00
2023-03-19T00:13:18.249Z,94779.00
2023-03-19T00:14:18.314Z,94779.00
2023-03-19T00:15:18.334Z,94785.00
2023-03-19T00:16:18.602Z,94783.00
2023-03-19T00:17:18.475Z,94785.00
2023-03-19T00:18:18.538Z,94789.00
2023-03-19T00:19:18.542Z,94785.00
2023-03-19T00:20:18.632Z,94785.00
2023-03-19T00:21:18.665Z,94787.00
2023-03-19T00:22:18.754Z,94789.00
2023-03-19T00:23:18.910Z,94787.00
2023-03-19T00:24:18.845Z,94785.00
2023-03-19T00:25:18.918Z,94781.00
2023-03-19T00:26:18.957Z,94781.00
2023-03-19T00:27:19.014Z,94781.00
2023-03-19T00:28:19.053Z,94777.00
2023-03-19T00:29:19.121Z,94777.00
2023-03-19T00:30:19.179Z,94775.00
2023-03-19T00:31:19.230Z,94775.00
2023-03-19T00:32:19.293Z,94775.00
2023-03-19T00:33:19.328Z,94775.00
2023-03-19T00:34:19.401Z,94779.00
2023-03-19T00:35:19.455Z,94783.00
2023-03-19T00:36:19.468Z,94783.00
2023-03-19T00:37:19.551Z,94787.00
2023-03-19T00:38:19.607Z,94789.00
2023-03-19T00:39:19.663Z,94791.00
2023-03-19T00:40:19.722Z,94793.00
2023-03-19T00:41:19.769Z,94795.00
2023-03-19T00:42:19.804Z,94795.00
2023-03-19T00:43:19.845Z,94799.00
2023-03-19T00:44:19.936Z,94799.00
2023-03-19T00:45:19.959Z,94797.00
2023-03-19T00:46:20.029Z,94795.00
2023-03-19T00:47:20.061Z,94799.00
2023-03-19T00:48:20.128Z,94795.00
2023-03-19T00:49:20.166Z,94793.00
2023-03-19T00:50:20.246Z,94791.00
2023-03-19T00:51:20.268Z,94795.00
2023-03-19T00:52:20.355Z,94791.00
2023-03-19T00:53:20.388Z,94793.00
2023-03-19T00:54:20.422Z,94793.00
2023-03-19T00:55:20.468Z,94793.00
2023-03-19T00:56:20.508Z,94795.00
2023-03-19T00:57:20.583Z,94791.00
2023-03-19T00:58:20.632Z,94795.00
2023-03-19T00:59:20.709Z,94793.00
2023-03-19T01:00:20.773Z,94795.00
2023-03-19T01:01:20.870Z,94795.00
2023-03-19T01:02:20.864Z,94797.00
2023-03-19T01:03:20.929Z,94797.00
2023-03-19T01:04:21.042Z,94799.00
2023-03-19T01:05:21.036Z,94803.00
2023-03-19T01:06:21.101Z,94805.00
2023-03-19T01:07:21.172Z,94807.00
2023-03-19T01:08:21.203Z,94807.00
2023-03-19T01:09:21.286Z,94805.00
2023-03-19T01:10:21.320Z,94805.00
2023-03-19T01:11:21.391Z,94803.00
2023-03-19T01:12:21.427Z,94799.00
2023-03-19T01:13:21.468Z,94799.00
2023-03-19T01:14:21.549Z,94801.00
2023-03-19T01:15:23.224Z,94799.00
2023-03-19T01:16:21.619Z,94801.00
2023-03-19T01:17:21.682Z,94799.00
2023-03-19T01:18:21.768Z,94799.00
2023-03-19T01:19:22.017Z,94799.00
2023-03-19T01:20:21.865Z,94799.00
2023-03-19T01:21:21.898Z,94799.00
2023-03-19T01:22:21.954Z,94797.00
2023-03-19T01:23:22.011Z,94797.00
2023-03-19T01:24:22.095Z,94791.00
2023-03-19T01:25:22.136Z,94793.00
2023-03-19T01:26:22.180Z,94793.00
2023-03-19T01:27:22.229Z,94791.00
2023-03-19T01:28:22.332Z,94793.00
2023-03-19T01:29:22.369Z,94793.00
2023-03-19T01:30:22.377Z,94793.00
2023-03-19T01:31:22.471Z,94793.00
2023-03-19T01:32:22.518Z,94793.00
2023-03-19T01:33:25.528Z,94795.00
2023-03-19T01:34:22.527Z,94793.00
2023-03-19T01:35:22.515Z,94795.00
2023-03-19T01:36:22.542Z,94797.00
2023-03-19T01:37:22.504Z,94797.00
2023-03-19T01:38:22.497Z,94797.00
2023-03-19T01:39:22.563Z,94799.00
2023-03-19T01:40:22.505Z,94795.00
2023-03-19T01:41:22.471Z,94795.00
2023-03-19T01:42:22.483Z,94793.00
2023-03-19T01:43:22.523Z,94791.00
2023-03-19T01:44:22.472Z,94791.00
2023-03-19T01:45:22.437Z,94791.00
2023-03-19T01:46:22.459Z,94793.00
2023-03-19T01:47:22.451Z,94793.00
2023-03-19T01:48:22.435Z,94797.00
2023-03-19T01:49:23.188Z,94799.00
2023-03-19T01:50:22.439Z,94803.00
2023-03-19T01:51:22.397Z,94803.00
2023-03-19T01:52:22.416Z,94803.00
2023-03-19T01:53:22.377Z,94805.00
2023-03-19T01:54:22.387Z,94811.00
2023-03-19T01:55:22.406Z,94813.00
2023-03-19T01:56:22.366Z,94809.00
2023-03-19T01:57:22.371Z,94807.00
2023-03-19T01:58:24.929Z,94807.00
2023-03-19T01:59:22.361Z,94803.00
2023-03-19T02:00:22.337Z,94799.00
2023-03-19T02:01:22.335Z,94797.00
2023-03-19T02:02:22.332Z,94801.00
2023-03-19T02:03:22.313Z,94797.00
2023-03-19T02:04:22.316Z,94797.00
2023-03-19T02:05:22.324Z,94801.00
2023-03-19T02:06:22.290Z,94801.00
2023-03-19T02:07:22.264Z,94805.00
2023-03-19T02:08:22.281Z,94807.00
2023-03-19T02:09:22.296Z,94807.00
2023-03-19T02:10:22.273Z,94809.00
2023-03-19T02:11:22.231Z,94807.00
2023-03-19T02:12:22.251Z,94801.00
2023-03-19T02:13:22.280Z,94807.00
2023-03-19T02:14:22.311Z,94807.00
2023-03-19T02:15:22.230Z,94805.00
2023-03-19T02:16:22.282Z,94801.00
2023-03-19T02:17:22.242Z,94803.00
2023-03-19T02:18:22.224Z,94803.00
2023-03-19T02:19:22.215Z,94799.00
2023-03-19T02:20:22.200Z,94795.00
2023-03-19T02:22:22.182Z,94797.00
2023-03-19T02:23:22.180Z,94797.00
2023-03-19T02:24:22.148Z,94797.00
2023-03-19T02:25:22.153Z,94801.00
2023-03-19T02:26:22.142Z,94801.00
2023-03-19T02:27:22.163Z,94805.00
2023-03-19T02:28:22.142Z,94803.00
2023-03-19T02:29:22.134Z,94807.00
2023-03-19T02:30:22.135Z,94807.00
2023-03-19T02:31:22.129Z,94809.00
2023-03-19T02:32:22.129Z,94809.00
2023-03-19T02:33:22.131Z,94809.00
2023-03-19T02:34:22.137Z,94809.00
2023-03-19T02:35:22.189Z,94811.00
2023-03-19T02:36:22.229Z,94811.00
2023-03-19T02:37:22.325Z,94811.00
2023-03-19T02:38:22.528Z,94807.00
2023-03-19T02:39:22.464Z,94809.00
2023-03-19T02:40:22.497Z,94809.00
2023-03-19T02:41:22.529Z,94803.00
2023-03-19T02:42:22.596Z,94801.00
2023-03-19T02:43:22.668Z,94801.00
2023-03-19T02:44:22.722Z,94801.00
2023-03-19T02:45:22.779Z,94797.00
2023-03-19T02:46:22.850Z,94799.00
2023-03-19T02:47:22.878Z,94799.00
2023-03-19T02:48:22.955Z,94795.00
2023-03-19T02:49:23.098Z,94799.00
2023-03-19T02:50:23.063Z,94799.00
2023-03-19T02:51:23.110Z,94799.00
2023-03-19T02:52:23.173Z,94803.00
2023-03-19T02:53:23.241Z,94807.00
2023-03-19T02:54:23.298Z,94807.00
2023-03-19T02:55:23.344Z,94811.00
2023-03-19T02:56:23.374Z,94814.00
2023-03-19T02:57:23.524Z,94814.00
2023-03-19T02:58:23.504Z,94814.00
2023-03-19T02:59:23.533Z,94814.00
2023-03-19T03:00:23.581Z,94814.00
2023-03-19T03:01:23.664Z,94816.00
2023-03-19T03:02:23.745Z,94816.00
2023-03-19T03:03:23.738Z,94814.00
2023-03-19T03:04:23.815Z,94818.00
2023-03-19T03:05:23.887Z,94816.00
2023-03-19T03:06:23.920Z,94820.00
2023-03-19T03:07:23.976Z,94818.00
2023-03-19T03:08:24.023Z,94818.00
2023-03-19T03:09:24.076Z,94818.00
2023-03-19T03:10:24.099Z,94820.00
2023-03-19T03:11:24.185Z,94820.00
2023-03-19T03:12:24.240Z,94818.00
2023-03-19T03:13:24.294Z,94818.00
2023-03-19T03:14:24.323Z,94820.00
2023-03-19T03:15:24.387Z,94818.00
2023-03-19T03:16:24.519Z,94826.00
2023-03-19T03:17:24.501Z,94826.00
2023-03-19T03:18:24.557Z,94828.00
2023-03-19T03:19:24.593Z,94830.00
2023-03-19T03:20:24.729Z,94832.00
2023-03-19T03:21:24.688Z,94836.00
2023-03-19T03:22:24.791Z,94836.00
2023-03-19T03:23:24.784Z,94838.00
2023-03-19T03:24:24.882Z,94838.00
2023-03-19T03:25:24.925Z,94836.00
2023-03-19T03:26:24.980Z,94834.00
2023-03-19T03:27:25.008Z,94832.00
2023-03-19T03:28:25.289Z,94830.00
2023-03-19T03:29:25.139Z,94830.00
2023-03-19T03:30:25.212Z,94830.00
2023-03-19T03:31:25.311Z,94832.00
2023-03-19T03:32:25.347Z,94834.00
2023-03-19T03:33:25.366Z,94838.00
2023-03-19T03:34:25.428Z,94836.00
2023-03-19T03:35:25.553Z,94838.00
2023-03-19T03:36:25.566Z,94840.00
2023-03-19T03:37:25.610Z,94842.00
2023-03-19T03:38:25.695Z,94846.00
2023-03-19T03:39:25.758Z,94846.00
2023-03-19T03:40:25.815Z,94850.00
2023-03-19T03:41:25.859Z,94848.00
2023-03-19T03:42:25.920Z,94846.00
2023-03-19T03:43:26.083Z,94842.00
2023-03-19T03:44:26.009Z,94838.00
2023-03-19T03:45:26.203Z,94840.00
2023-03-19T03:46:26.169Z,94836.00
2023-03-19T03:47:26.170Z,94840.00
2023-03-19T03:48:26.220Z,94840.00
2023-03-19T03:49:26.281Z,94844.00
2023-03-19T03:50:26.331Z,94844.00
2023-03-19T03:51:26.397Z,94840.00
2023-03-19T03:52:26.438Z,94838.00
2023-03-19T03:53:26.501Z,94840.00
2023-03-19T03:54:26.606Z,94836.00
2023-03-19T03:55:26.608Z,94838.00
2023-03-19T03:56:26.663Z,94842.00
2023-03-19T03:57:26.749Z,94844.00
2023-03-19T03:58:26.762Z,94846.00
2023-03-19T03:59:26.821Z,94846.00
2023-03-19T04:00:26.910Z,94850.00
2023-03-19T04:01:26.926Z,94852.00
2023-03-19T04:02:27.043Z,94852.00
2023-03-19T04:03:27.066Z,94852.00
2023-03-19T04:04:27.080Z,94852.00
2023-03-19T04:05:27.219Z,94852.00
2023-03-19T04:06:27.182Z,94853.00
2023-03-19T04:07:27.246Z,94853.00
2023-03-19T04:08:27.306Z,94855.00
2023-03-19T04:09:27.340Z,94855.00
2023-03-19T04:10:27.396Z,94853.00
2023-03-19T04:11:27.452Z,94857.00
2023-03-19T04:12:27.505Z,94855.00
2023-03-19T04:13:27.568Z,94855.00
2023-03-19T04:14:27.576Z,94855.00
2023-03-19T04:15:27.665Z,94853.00
2023-03-19T04:16:27.765Z,94852.00
2023-03-19T04:17:27.764Z,94853.00
2023-03-19T04:18:27.792Z,94852.00
2023-03-19T04:19:27.872Z,94855.00
2023-03-19T04:20:27.904Z,94855.00
2023-03-19T04:21:27.976Z,94855.00
2023-03-19T04:22:28.042Z,94855.00
2023-03-19T04:23:28.077Z,94859.00
2023-03-19T04:24:28.089Z,94861.00
2023-03-19T04:25:28.170Z,94861.00
2023-03-19T04:26:28.196Z,94865.00
2023-03-19T04:27:28.269Z,94865.00
2023-03-19T04:28:28.298Z,94867.00
2023-03-19T04:29:28.385Z,94867.00
2023-03-19T04:30:28.488Z,94869.00
2023-03-19T04:31:28.502Z,94871.00
2023-03-19T04:32:28.494Z,94871.00
2023-03-19T04:33:28.582Z,94873.00
2023-03-19T04:34:28.646Z,94875.00
2023-03-19T04:35:28.698Z,94873.00
2023-03-19T04:36:28.751Z,94875.00
2023-03-19T04:37:28.764Z,94875.00
2023-03-19T04:38:28.821Z,94871.00
2023-03-19T04:39:28.897Z,94873.00
2023-03-19T04:40:28.939Z,94877.00
2023-03-19T04:41:28.965Z,94879.00
2023-03-19T04:42:29.040Z,94875.00
2023-03-19T04:43:29.088Z,94877.00
2023-03-19T04:44:29.117Z,94879.00
2023-03-19T04:45:29.172Z,94875.00
2023-03-19T04:46:29.281Z,94877.00
2023-03-19T04:47:29.258Z,94875.00
2023-03-19T04:48:29.312Z,94879.00
2023-03-19T04:49:29.369Z,94879.00
2023-03-19T04:50:29.450Z,94881.00
2023-03-19T04:51:29.474Z,94885.00
2023-03-19T04:52:29.516Z,94881.00
2023-03-19T04:53:29.560Z,94881.00
2023-03-19T04:54:29.591Z,94883.00
2023-03-19T04:55:29.640Z,94885.00
2023-03-19T04:56:29.722Z,94887.00
2023-03-19T04:57:29.791Z,94883.00
2023-03-19T04:58:29.823Z,94883.00
2023-03-19T04:59:29.878Z,94887.00
2023-03-19T05:00:29.929Z,94887.00
2023-03-19T05:01:30.024Z,94887.00
2023-03-19T05:02:30.011Z,94887.00
2023-03-19T05:03:30.128Z,94887.00
2023-03-19T05:04:30.150Z,94885.00
2023-03-19T05:05:30.211Z,94887.00
2023-03-19T05:06:30.249Z,94887.00
2023-03-19T05:07:30.292Z,94887.00
2023-03-19T05:08:30.383Z,94889.00
2023-03-19T05:09:30.422Z,94887.00
2023-03-19T05:10:30.471Z,94891.00
2023-03-19T05:11:30.522Z,94889.00
2023-03-19T05:12:30.569Z,94889.00
2023-03-19T05:13:30.634Z,94895.00
2023-03-19T05:14:30.687Z,94897.00
2023-03-19T05:15:30.748Z,94897.00
2023-03-19T05:16:30.745Z,94895.00
2023-03-19T05:17:30.821Z,94899.00
2023-03-19T05:18:30.845Z,94900.00
2023-03-19T05:19:30.915Z,94902.00
2023-03-19T05:20:30.983Z,94902.00
2023-03-19T05:21:30.999Z,94904.00
2023-03-19T05:22:31.100Z,94902.00
2023-03-19T05:23:31.115Z,94902.00
2023-03-19T05:24:31.157Z,94904.00
2023-03-19T05:25:31.249Z,94904.00
2023-03-19T05:26:31.249Z,94904.00
2023-03-19T05:27:31.324Z,94904.00
2023-03-19T05:28:31.376Z,94908.00
2023-03-19T05:29:31.417Z,94908.00
2023-03-19T05:30:31.624Z,94908.00
2023-03-19T05:31:31.593Z,94910.00
2023-03-19T05:32:31.620Z,94912.00
2023-03-19T05:33:31.594Z,94914.00
2023-03-19T05:34:31.662Z,94918.00
2023-03-19T05:35:31.752Z,94918.00
2023-03-19T05:36:31.763Z,94920.00
2023-03-19T05:37:31.806Z,94918.00
2023-03-19T05:38:31.841Z,94918.00
2023-03-19T05:39:31.885Z,94918.00
2023-03-19T06:00:33.152Z,94947.00
2023-03-19T06:01:33.027Z,94949.00
2023-03-19T06:02:33.117Z,94951.00
2023-03-19T06:03:33.144Z,94953.00
2023-03-19T06:04:33.108Z,94949.00
2023-03-19T06:05:33.172Z,94951.00
2023-03-19T06:06:33.195Z,94953.00
2023-03-19T06:07:33.255Z,94953.00
2023-03-19T06:08:33.330Z,94959.00
2023-03-19T06:09:33.365Z,94959.00
2023-03-19T06:10:33.646Z,94961.00
2023-03-19T06:11:33.482Z,94963.00
2023-03-19T06:12:33.525Z,94963.00
2023-03-19T06:13:33.573Z,94963.00
2023-03-19T06:14:33.616Z,94965.00
2023-03-19T06:15:33.813Z,94969.00
2023-03-19T06:16:33.692Z,94971.00
2023-03-19T06:17:33.744Z,94979.00
2023-03-19T06:18:33.811Z,94983.00
2023-03-19T06:19:33.834Z,94987.00
2023-03-19T06:20:34.101Z,94987.00
2023-03-19T06:21:33.941Z,94987.00
2023-03-19T06:22:34.000Z,94985.00
2023-03-19T06:23:34.016Z,94983.00
2023-03-19T06:24:34.057Z,94979.00
2023-03-19T06:25:34.113Z,94979.00
2023-03-19T06:26:34.141Z,94979.00
2023-03-19T06:27:34.185Z,94981.00
2023-03-19T06:28:34.249Z,94985.00
2023-03-19T06:29:34.299Z,94985.00
2023-03-19T06:30:34.615Z,94987.00
2023-03-19T06:31:34.395Z,94987.00
2023-03-19T06:32:34.436Z,94989.00
2023-03-19T06:33:34.448Z,94989.00
2023-03-19T06:34:34.501Z,94991.00
2023-03-19T06:35:34.528Z,94994.00
2023-03-19T06:36:34.571Z,94991.00
2023-03-19T06:37:34.630Z,94991.00
2023-03-19T06:38:34.656Z,94994.00
2023-03-19T06:39:34.712Z,94996.00
2023-03-19T06:40:34.901Z,94998.00
2023-03-19T06:41:34.792Z,95000.00
2023-03-19T06:42:34.890Z,95000.00
2023-03-19T06:43:34.896Z,94998.00
2023-03-19T06:44:34.939Z,95000.00
2023-03-19T06:45:35.018Z,94996.00
2023-03-19T06:46:35.010Z,94994.00
2023-03-19T06:47:35.104Z,94991.00
2023-03-19T06:48:35.103Z,94991.00
2023-03-19T06:49:35.168Z,94987.00
2023-03-19T06:50:35.437Z,94989.00
2023-03-19T06:51:35.229Z,94991.00
2023-03-19T06:52:35.264Z,94994.00
2023-03-19T06:53:35.340Z,94994.00
2023-03-19T06:54:38.258Z,94994.00
2023-03-19T06:55:35.368Z,94996.00
2023-03-19T06:56:35.332Z,94994.00
2023-03-19T06:57:35.334Z,94996.00
2023-03-19T06:58:35.362Z,94996.00
2023-03-19T06:59:35.324Z,94996.00
2023-03-19T07:00:35.617Z,94996.00
2023-03-19T07:01:35.306Z,95000.00
2023-03-19T07:02:35.330Z,95002.00
2023-03-19T07:03:35.269Z,95006.00
2023-03-19T07:04:35.326Z,95006.00
2023-03-19T07:05:35.283Z,95008.00
2023-03-19T07:06:35.270Z,95010.00
2023-03-19T07:07:35.291Z,95014.00
2023-03-19T07:08:35.256Z,95014.00
2023-03-19T07:09:35.248Z,95010.00
2023-03-19T07:10:35.556Z,95016.00
2023-03-19T07:11:36.017Z,95018.00
2023-03-19T07:12:35.218Z,95020.00
2023-03-19T07:13:35.243Z,95020.00
2023-03-19T07:14:35.216Z,95022.00
2023-03-19T07:15:35.179Z,95022.00
2023-03-19T07:16:35.310Z,95024.00
2023-03-19T07:17:35.188Z,95026.00
2023-03-19T07:18:35.169Z,95022.00
2023-03-19T07:19:35.208Z,95026.00
2023-03-19T07:20:35.535Z,95028.00
2023-03-19T07:21:35.152Z,95026.00
2023-03-19T07:22:35.140Z,95030.00
2023-03-19T07:23:35.140Z,95028.00
2023-03-19T07:24:35.146Z,95032.00
2023-03-19T07:25:35.152Z,95030.00
2023-03-19T07:26:35.142Z,95028.00
2023-03-19T07:27:35.107Z,95026.00
2023-03-19T07:28:35.101Z,95026.00
2023-03-19T07:29:35.100Z,95024.00
2023-03-19T07:30:35.437Z,95024.00
2023-03-19T07:31:35.137Z,95026.00
2023-03-19T07:32:35.094Z,95026.00
2023-03-19T07:33:35.049Z,95028.00
2023-03-19T07:34:35.043Z,95030.00
2023-03-19T07:35:35.098Z,95032.00
2023-03-19T07:36:35.052Z,95034.00
2023-03-19T07:37:35.104Z,95030.00
2023-03-19T07:38:35.131Z,95034.00
2023-03-19T07:39:35.163Z,95036.00
2023-03-19T07:40:35.529Z,95036.00
2023-03-19T07:41:35.258Z,95034.00
2023-03-19T07:42:35.285Z,95032.00
2023-03-19T07:43:35.299Z,95034.00
2023-03-19T07:44:35.377Z,95030.00
2023-03-19T07:45:35.406Z,95028.00
2023-03-19T07:46:35.423Z,95028.00
2023-03-19T07:47:35.450Z,95026.00
2023-03-19T07:48:35.476Z,95022.00
2023-03-19T07:49:35.504Z,95026.00
2023-03-19T07:50:35.819Z,95020.00
2023-03-19T07:51:35.574Z,95022.00
2023-03-19T07:52:35.595Z,95020.00
2023-03-19T07:53:35.639Z,95022.00
2023-03-19T07:54:35.692Z,95020.00
2023-03-19T07:55:37.297Z,95022.00
2023-03-19T07:56:35.865Z,95022.00
2023-03-19T07:57:35.920Z,95022.00
2023-03-19T07:58:35.917Z,95022.00
2023-03-19T07:59:35.979Z,95020.00
2023-03-19T08:00:36.474Z,95020.00
2023-03-19T08:01:36.071Z,95016.00
2023-03-19T08:02:36.061Z,95016.00
2023-03-19T08:03:36.077Z,95012.00
2023-03-19T08:04:36.236Z,95010.00
2023-03-19T08:05:36.150Z,95012.00
2023-03-19T08:06:36.191Z,95016.00
2023-03-19T08:07:36.218Z,95012.00
2023-03-19T08:08:36.261Z,95012.00
2023-03-19T08:09:36.300Z,95012.00
2023-03-19T08:10:38.059Z,95012.00
2023-03-19T08:11:36.336Z,95010.00
2023-03-19T08:12:36.370Z,95010.00
2023-03-19T08:13:36.387Z,95010.00
2023-03-19T08:14:36.418Z,95010.00
2023-03-19T08:15:36.461Z,95012.00
2023-03-19T08:16:36.525Z,95010.00
2023-03-19T08:17:36.509Z,95012.00
2023-03-19T08:18:36.559Z,95010.00
2023-03-19T08:19:36.574Z,95006.00
2023-03-19T08:20:36.794Z,95006.00
2023-03-19T08:21:36.658Z,95004.00
2023-03-19T08:22:36.681Z,95002.00
2023-03-19T08:23:36.704Z,95004.00
2023-03-19T08:24:36.765Z,95004.00
2023-03-19T08:25:36.773Z,95006.00
2023-03-19T08:26:36.778Z,95006.00
2023-03-19T08:27:36.808Z,95004.00
2023-03-19T08:28:36.840Z,95004.00
2023-03-19T08:29:36.867Z,95006.00
2023-03-19T08:30:37.115Z,95004.00
2023-03-19T08:31:36.938Z,95002.00
2023-03-19T08:32:37.018Z,95002.00
2023-03-19T08:33:36.986Z,95002.00
2023-03-19T08:34:37.049Z,95006.00
2023-03-19T08:35:37.180Z,95008.00
2023-03-19T08:36:37.112Z,95006.00
2023-03-19T08:37:37.106Z,95004.00
2023-03-19T08:38:37.125Z,95002.00
2023-03-19T08:39:37.169Z,95000.00
2023-03-19T08:40:37.324Z,95000.00
2023-03-19T08:41:37.203Z,95000.00
2023-03-19T08:42:37.229Z,94994.00
2023-03-19T08:43:37.271Z,94996.00
2023-03-19T08:44:37.303Z,94992.00
2023-03-19T08:45:37.312Z,94992.00
2023-03-19T08:46:37.412Z,94994.00
2023-03-19T08:47:37.396Z,94994.00
2023-03-19T08:48:39.167Z,94994.00
2023-03-19T08:49:37.395Z,95000.00
2023-03-19T08:50:37.359Z,95000.00
2023-03-19T08:51:37.389Z,95000.00
2023-03-19T08:52:37.384Z,94998.00
2023-03-19T08:53:37.366Z,94998.00
2023-03-19T08:54:37.366Z,94998.00
2023-03-19T08:55:37.344Z,94998.00
2023-03-19T08:56:37.349Z,94998.00
2023-03-19T08:57:37.520Z,94996.00
2023-03-19T08:58:37.331Z,95000.00
2023-03-19T08:59:37.328Z,95000.00
2023-03-19T09:00:37.317Z,95002.00
2023-03-19T09:01:37.343Z,95006.00
2023-03-19T09:02:37.314Z,95008.00
2023-03-19T09:03:37.305Z,95006.00
2023-03-19T09:04:37.417Z,95006.00
2023-03-19T09:05:37.281Z,95006.00
2023-03-19T09:06:37.284Z,95010.00
2023-03-19T09:07:37.281Z,95008.00
2023-03-19T09:08:37.351Z,95006.00
2023-03-19T09:09:37.265Z,95010.00
2023-03-19T09:10:37.259Z,95010.00
2023-03-19T09:11:37.303Z,95010.00
2023-03-19T09:12:37.257Z,95014.00
2023-03-19T09:13:37.222Z,95008.00
2023-03-19T09:14:37.228Z,95008.00
2023-03-19T09:15:37.427Z,95008.00
2023-03-19T09:16:37.227Z,95006.00
2023-03-19T09:18:37.207Z,95002.00
2023-03-19T09:19:37.173Z,95002.00
2023-03-19T09:20:37.201Z,95006.00
2023-03-19T09:21:37.291Z,95006.00
2023-03-19T09:22:37.203Z,95006.00
2023-03-19T09:23:37.301Z,95006.00
2023-03-19T09:24:39.497Z,95004.00
2023-03-19T09:25:37.176Z,95002.00
2023-03-19T09:26:37.284Z,95004.00
2023-03-19T09:27:37.133Z,95002.00
2023-03-19T09:28:37.133Z,94996.00
2023-03-19T09:29:37.157Z,94994.00
2023-03-19T09:30:37.117Z,94991.00
2023-03-19T09:31:37.196Z,94992.00
2023-03-19T09:32:37.154Z,94991.00
2023-03-19T09:33:37.091Z,94989.00
2023-03-19T09:34:37.122Z,94987.00
2023-03-19T09:35:37.315Z,94987.00
2023-03-19T09:36:37.116Z,94985.00
2023-03-19T09:37:37.064Z,94985.00
2023-03-19T09:39:37.053Z,94979.00
2023-03-19T09:40:37.024Z,94977.00
2023-03-19T09:41:37.027Z,94975.00
2023-03-19T09:42:37.039Z,94973.00
2023-03-19T09:43:37.030Z,94975.00
2023-03-19T09:44:37.026Z,94975.00
2023-03-19T09:45:37.011Z,94977.00
2023-03-19T09:46:37.068Z,94973.00
2023-03-19T09:47:37.016Z,94975.00
2023-03-19T09:48:36.993Z,94975.00
2023-03-19T09:49:37.015Z,94973.00
2023-03-19T09:50:36.984Z,94973.00
2023-03-19T09:51:36.988Z,94973.00
2023-03-19T09:52:36.968Z,94971.00
2023-03-19T09:53:36.991Z,94971.00
2023-03-19T09:54:36.950Z,94967.00
2023-03-19T09:55:37.280Z,94969.00
2023-03-19T09:57:36.945Z,94967.00
2023-03-19T09:58:36.942Z,94969.00
2023-03-19T09:59:37.088Z,94971.00
2023-03-19T10:00:36.944Z,94971.00
2023-03-19T10:01:36.976Z,94971.00
2023-03-19T10:02:37.023Z,94971.00
2023-03-19T10:03:36.925Z,94965.00
2023-03-19T10:04:36.889Z,94967.00
2023-03-19T10:05:37.062Z,94967.00
2023-03-19T10:06:36.917Z,94965.00
2023-03-19T10:07:36.882Z,94967.00
2023-03-19T10:08:36.871Z,94967.00
2023-03-19T10:09:36.870Z,94967.00
2023-03-19T10:10:36.880Z,94963.00
2023-03-19T10:11:36.858Z,94965.00
2023-03-19T10:12:36.864Z,94965.00
2023-03-19T10:13:36.835Z,94963.00
2023-03-19T10:14:36.825Z,94963.00
2023-03-19T10:15:37.213Z,94961.00
2023-03-19T10:16:36.918Z,94961.00
2023-03-19T10:17:36.824Z,94961.00
2023-03-19T10:18:36.793Z,94959.00
2023-03-19T10:19:39.190Z,94959.00
2023-03-19T10:20:36.772Z,94955.00
2023-03-19T10:21:36.911Z,94955.00
2023-03-19T10:22:36.777Z,94955.00
2023-03-19T10:23:36.785Z,94951.00
2023-03-19T10:24:36.902Z,94949.00
2023-03-19T10:25:39.680Z,94947.00
2023-03-19T10:26:36.746Z,94947.00
2023-03-19T10:27:36.731Z,94949.00
2023-03-19T10:28:36.736Z,94945.00
2023-03-19T10:29:36.758Z,94944.00
2023-03-19T10:30:36.776Z,94944.00
2023-03-19T10:31:36.884Z,94942.00
2023-03-19T10:32:36.768Z,94945.00
2023-03-19T10:33:36.675Z,94944.00
2023-03-19T10:34:36.701Z,94945.00
2023-03-19T10:35:37.355Z,94944.00
2023-03-19T10:36:36.705Z,94940.00
2023-03-19T10:37:36.663Z,94940.00
2023-03-19T10:38:36.683Z,94940.00
2023-03-19T10:39:36.658Z,94944.00
2023-03-19T10:40:36.666Z,94942.00
2023-03-19T10:41:36.659Z,94940.00
2023-03-19T10:42:36.629Z,94940.00
2023-03-19T10:43:36.666Z,94940.00
2023-03-19T10:44:36.629Z,94928.00
2023-03-19T10:45:38.797Z,94924.00
2023-03-19T10:46:36.755Z,94922.00
2023-03-19T10:47:36.768Z,94922.00
2023-03-19T10:48:37.394Z,94918.00
2023-03-19T10:49:36.809Z,94918.00
2023-03-19T10:50:36.807Z,94918.00
2023-03-19T10:51:36.865Z,94918.00
2023-03-19T10:52:36.851Z,94918.00
2023-03-19T10:53:36.866Z,94912.00
2023-03-19T10:54:36.885Z,94912.00
2023-03-19T10:55:37.060Z,94908.00
2023-03-19T10:56:36.947Z,94906.00
2023-03-19T10:57:36.923Z,94904.00
2023-03-19T10:58:36.930Z,94902.00
2023-03-19T10:59:37.000Z,94899.00
2023-03-19T11:00:36.980Z,94900.00
2023-03-19T11:01:37.024Z,94900.00
2023-03-19T11:02:37.032Z,94900.00
2023-03-19T11:03:37.098Z,94893.00
2023-03-19T11:04:37.116Z,94895.00
2023-03-19T11:05:37.567Z,94893.00
2023-03-19T11:06:37.106Z,94893.00
2023-03-19T11:07:37.158Z,94895.00
2023-03-19T11:08:37.154Z,94895.00
2023-03-19T11:09:37.163Z,94897.00
2023-03-19T11:10:37.163Z,94893.00
2023-03-19T11:11:37.208Z,94895.00
2023-03-19T11:12:37.220Z,94891.00
2023-03-19T11:13:37.238Z,94889.00
2023-03-19T11:14:37.261Z,94881.00
2023-03-19T11:15:37.490Z,94879.00
2023-03-19T11:16:37.318Z,94877.00
2023-03-19T11:17:37.298Z,94877.00
2023-03-19T11:18:37.294Z,94873.00
2023-03-19T11:19:37.332Z,94873.00
2023-03-19T11:20:37.355Z,94873.00
2023-03-19T11:21:37.371Z,94871.00
2023-03-19T11:22:37.361Z,94871.00
2023-03-19T11:23:37.358Z,94867.00
2023-03-19T11:24:37.433Z,94865.00
2023-03-19T11:25:37.418Z,94871.00
2023-03-19T11:26:37.464Z,94867.00
2023-03-19T11:27:37.462Z,94865.00
2023-03-19T11:28:37.491Z,94861.00
2023-03-19T11:29:37.482Z,94859.00
2023-03-19T11:30:37.482Z,94861.00
2023-03-19T11:31:37.602Z,94863.00
2023-03-19T11:32:37.609Z,94863.00
2023-03-19T11:33:37.548Z,94861.00
2023-03-19T11:34:37.533Z,94863.00
2023-03-19T11:35:38.139Z,94863.00
2023-03-19T11:36:37.594Z,94859.00
2023-03-19T11:37:37.601Z,94859.00
2023-03-19T11:38:37.619Z,94857.00
2023-03-19T11:39:37.652Z,94853.00
2023-03-19T11:40:37.657Z,94855.00
2023-03-19T11:41:37.662Z,94859.00
2023-03-19T11:42:37.685Z,94855.00
2023-03-19T11:43:37.686Z,94852.00
2023-03-19T11:44:37.679Z,94855.00
2023-03-19T11:45:40.643Z,94850.00
2023-03-19T11:46:37.697Z,94844.00
2023-03-19T11:47:37.688Z,94848.00
2023-03-19T11:48:37.676Z,94848.00
2023-03-19T11:49:37.701Z,94844.00
2023-03-19T11:50:37.688Z,94844.00
2023-03-19T11:51:37.672Z,94840.00
2023-03-19T11:52:37.675Z,94842.00
2023-03-19T11:53:37.666Z,94842.00
2023-03-19T11:54:37.697Z,94842.00
2023-03-19T11:55:37.653Z,94838.00
2023-03-19T11:56:37.646Z,94836.00
2023-03-19T11:57:37.644Z,94834.00
2023-03-19T11:58:37.612Z,94832.00
2023-03-19T11:59:37.617Z,94828.00
2023-03-19T12:00:37.599Z,94832.00
2023-03-19T12:01:39.224Z,94828.00
2023-03-19T12:02:37.657Z,94822.00
2023-03-19T12:03:37.642Z,94822.00
2023-03-19T12:04:37.596Z,94820.00
2023-03-19T12:05:37.588Z,94816.00
2023-03-19T12:06:37.550Z,94818.00
2023-03-19T12:07:37.557Z,94818.00
2023-03-19T12:08:37.556Z,94813.00